Time;durP1;ratioP1;P1;durP2;ratioP2;P2;SDS_P1;SDS_P2;PMS_P1;PMS_P2;Temp;Humidity;BMP_temperature;BMP_pressure;BME280_temperature;BME280_humidity;BME280_pressure;Samples;Min_cycle;Max_cycle;Signal;HPM_P1;HPM_P2
2022/09/01 00:01:46;;;;;;;6.60;4.65;;;18.10;99.90;;;;;;5010729;28;20032;-84
2022/09/01 00:04:15;;;;;;;6.03;3.97;;;18.10;99.90;;;;;;5013320;28;20030;-82
2022/09/01 00:06:42;;;;;;;6.45;4.22;;;18.10;99.90;;;;;;5014577;28;20116;-84
2022/09/01 00:09:14;;;;;;;7.30;4.20;;;18.10;99.90;;;;;;5013627;28;20030;-86
2022/09/01 00:11:43;;;;;;;5.82;4.45;;;18.10;99.90;;;;;;5012914;28;20034;-84
2022/09/01 00:14:10;;;;;;;6.88;4.30;;;18.10;99.90;;;;;;5012653;28;20034;-85
2022/09/01 00:16:36;;;;;;;5.57;4.20;;;18.10;99.90;;;;;;5013573;28;20058;-85
2022/09/01 00:19:03;;;;;;;6.80;3.85;;;18.10;99.90;;;;;;5013465;28;20030;-85
2022/09/01 00:21:38;;;;;;;7.05;4.32;;;18.10;99.90;;;;;;5012796;28;20034;-85
2022/09/01 00:24:05;;;;;;;5.00;3.97;;;18.00;99.90;;;;;;5013613;28;20022;-85
2022/09/01 00:26:30;;;;;;;6.68;3.92;;;18.00;99.90;;;;;;5013956;28;20026;-86
2022/09/01 00:28:56;;;;;;;5.32;4.20;;;18.00;99.90;;;;;;5013835;28;20049;-85
2022/09/01 00:31:22;;;;;;;4.25;3.58;;;17.90;99.90;;;;;;5013367;28;20120;-85
2022/09/01 00:33:49;;;;;;;7.47;4.07;;;17.90;99.90;;;;;;5012953;28;20084;-85
2022/09/01 00:36:16;;;;;;;5.88;3.83;;;18.00;99.90;;;;;;5013228;28;20030;-86
2022/09/01 00:38:42;;;;;;;6.05;3.90;;;18.00;99.90;;;;;;5013559;28;20026;-86
2022/09/01 00:41:09;;;;;;;8.13;4.07;;;18.00;99.90;;;;;;5012842;28;20596;-85
2022/09/01 00:43:43;;;;;;;4.38;3.50;;;18.00;99.90;;;;;;5013643;28;20028;-86
2022/09/01 00:46:12;;;;;;;6.15;3.90;;;17.90;99.90;;;;;;5014245;28;20467;-86
2022/09/01 00:48:38;;;;;;;9.73;3.90;;;17.80;99.90;;;;;;5012676;28;20030;-84
2022/09/01 00:51:06;;;;;;;6.65;3.67;;;17.80;99.90;;;;;;5014109;28;20455;-83
2022/09/01 00:53:33;;;;;;;7.50;4.18;;;17.80;99.90;;;;;;5013630;28;20486;-84
2022/09/01 00:55:59;;;;;;;5.63;3.67;;;17.70;99.90;;;;;;5012713;28;20026;-84
2022/09/01 00:58:25;;;;;;;4.78;3.67;;;17.60;99.90;;;;;;5014074;28;20053;-85
2022/09/01 01:00:52;;;;;;;4.95;3.80;;;17.60;99.90;;;;;;5012439;28;20030;-84
2022/09/01 01:03:18;;;;;;;6.00;3.80;;;17.60;99.90;;;;;;5014278;28;20030;-85
2022/09/01 01:05:52;;;;;;;4.55;3.63;;;17.50;99.90;;;;;;5012517;28;20022;-85
2022/09/01 01:08:35;;;;;;;5.85;3.78;;;17.50;99.90;;;;;;5012974;28;20026;-85
2022/09/01 01:11:03;;;;;;;6.10;3.17;;;17.50;99.90;;;;;;5012937;28;20462;-85
2022/09/01 01:13:31;;;;;;;4.80;3.60;;;17.50;99.90;;;;;;5012896;28;20072;-85
2022/09/01 01:15:58;;;;;;;8.32;3.75;;;17.50;99.90;;;;;;5012082;28;20056;-86
2022/09/01 01:18:24;;;;;;;5.57;3.53;;;17.50;99.90;;;;;;5012674;28;20030;-89
2022/09/01 01:24:26;;;;;;;5.43;3.40;;;17.50;99.90;;;;;;4992325;28;20042;-87
2022/09/01 01:26:58;;;;;;;4.68;3.42;;;17.50;99.90;;;;;;4994831;28;20031;-88
2022/09/01 01:29:25;;;;;;;;;;;17.50;99.90;;;;;;5009110;28;20542;-88
2022/09/01 01:31:52;;;;;;;7.45;3.38;;;17.40;99.90;;;;;;5016030;28;20212;-88
2022/09/01 01:34:19;;;;;;;7.57;3.67;;;17.40;99.90;;;;;;5016514;28;20029;-86
2022/09/01 01:36:47;;;;;;;5.35;3.47;;;17.40;99.90;;;;;;5016663;28;20034;-87
2022/09/01 01:39:24;;;;;;;5.45;3.15;;;17.40;99.90;;;;;;5016008;28;20037;-86
2022/09/01 01:41:51;;;;;;;7.93;3.53;;;17.40;99.90;;;;;;5015754;28;20542;-86
2022/09/01 01:44:21;;;;;;;4.63;3.28;;;17.30;99.90;;;;;;5016216;28;20451;-87
2022/09/01 01:46:50;;;;;;;3.97;3.47;;;17.30;99.90;;;;;;5015580;28;20061;-86
2022/09/01 01:49:19;;;;;;;5.75;3.28;;;17.30;99.90;;;;;;5017040;28;20039;-87
2022/09/01 01:51:46;;;;;;;6.22;3.10;;;17.30;99.90;;;;;;5016582;28;20048;-87
2022/09/01 01:54:13;;;;;;;6.38;3.20;;;17.30;99.90;;;;;;5016002;28;20065;-87
2022/09/01 01:56:40;;;;;;;4.00;3.00;;;17.30;99.90;;;;;;5015134;28;20037;-86
2022/09/01 01:59:08;;;;;;;3.47;3.00;;;17.30;99.90;;;;;;5016605;28;20053;-84
2022/09/01 02:01:35;;;;;;;4.15;2.95;;;17.30;99.90;;;;;;5015053;28;20025;-82
2022/09/01 02:04:03;;;;;;;4.63;3.00;;;17.30;99.90;;;;;;5015589;28;20022;-84
2022/09/01 02:06:33;;;;;;;5.85;3.10;;;17.20;99.90;;;;;;5016666;28;20022;-84
2022/09/01 02:09:00;;;;;;;6.35;3.20;;;17.20;99.90;;;;;;5015788;28;20112;-83
2022/09/01 02:11:26;;;;;;;3.63;3.05;;;17.20;99.90;;;;;;5015279;28;20029;-84
2022/09/01 02:13:56;;;;;;;6.80;3.17;;;17.10;99.90;;;;;;5016338;28;20069;-86
2022/09/01 02:16:23;;;;;;;4.82;3.00;;;17.10;99.90;;;;;;5016642;28;20078;-86
2022/09/01 02:18:50;;;;;;;3.80;3.17;;;17.10;99.90;;;;;;5016120;28;20022;-85
2022/09/01 02:21:21;;;;;;;3.88;3.22;;;17.00;99.90;;;;;;5014861;28;20029;-86
2022/09/01 02:23:56;;;;;;;4.10;3.40;;;17.10;99.90;;;;;;5014700;28;20093;-86
2022/09/01 02:26:22;;;;;;;4.80;2.70;;;17.10;99.90;;;;;;5015189;28;20064;-86
2022/09/01 02:28:48;;;;;;;6.13;3.25;;;17.10;99.90;;;;;;5015646;28;20026;-85
2022/09/01 02:31:14;;;;;;;4.80;3.00;;;17.10;99.90;;;;;;5015137;28;20477;-85
2022/09/01 02:33:44;;;;;;;5.68;3.50;;;17.10;99.90;;;;;;5014804;28;20113;-85
2022/09/01 02:36:14;;;;;;;3.40;2.80;;;17.10;99.90;;;;;;5015779;28;20117;-85
2022/09/01 02:38:43;;;;;;;3.85;2.95;;;17.10;99.90;;;;;;5014567;28;20117;-85
2022/09/01 02:41:10;;;;;;;4.75;3.28;;;17.10;99.90;;;;;;5015830;28;20030;-85
2022/09/01 02:43:37;;;;;;;3.55;3.17;;;17.10;99.90;;;;;;5014835;28;20030;-86
2022/09/01 02:46:05;;;;;;;4.38;3.30;;;17.10;99.90;;;;;;5016016;28;20034;-85
2022/09/01 02:48:36;;;;;;;5.38;2.67;;;17.00;99.90;;;;;;5014774;28;20056;-85
2022/09/01 02:51:08;;;;;;;5.05;3.03;;;17.00;99.90;;;;;;5015935;28;20161;-85
2022/09/01 02:53:34;;;;;;;6.07;3.58;;;17.00;99.90;;;;;;5015029;28;20034;-85
2022/09/01 02:56:02;;;;;;;5.47;3.13;;;16.90;99.90;;;;;;5015513;28;20030;-85
2022/09/01 02:58:31;;;;;;;3.97;3.10;;;17.00;99.90;;;;;;5014704;28;20391;-85
2022/09/01 03:00:57;;;;;;;4.63;3.63;;;16.90;99.90;;;;;;5013870;28;20108;-85
2022/09/01 03:03:24;;;;;;;7.57;3.33;;;17.00;99.90;;;;;;5014424;28;20129;-85
2022/09/01 03:05:55;;;;;;;7.38;3.72;;;16.90;99.90;;;;;;5014705;28;20076;-85
2022/09/01 03:08:23;;;;;;;5.43;3.15;;;16.90;99.90;;;;;;5015477;28;20018;-86
2022/09/01 03:10:50;;;;;;;4.78;3.05;;;16.90;99.90;;;;;;5013946;28;20026;-86
2022/09/01 03:13:19;;;;;;;5.50;3.60;;;16.90;99.90;;;;;;5014405;28;20033;-86
2022/09/01 03:15:45;;;;;;;5.60;3.30;;;16.80;99.90;;;;;;5014724;28;20049;-85
2022/09/01 03:18:12;;;;;;;5.30;3.40;;;16.80;99.90;;;;;;5015661;28;20037;-86
2022/09/01 03:20:42;;;;;;;5.97;3.33;;;16.80;99.90;;;;;;5014633;28;20033;-87
2022/09/01 03:23:13;;;;;;;5.43;3.45;;;16.70;99.90;;;;;;5014547;28;20379;-85
2022/09/01 03:25:42;;;;;;;4.00;3.45;;;16.70;99.90;;;;;;5013934;28;20028;-85
2022/09/01 03:28:11;;;;;;;4.78;3.45;;;16.70;99.90;;;;;;5015135;28;20029;-86
2022/09/01 03:30:41;;;;;;;5.18;3.50;;;16.70;99.90;;;;;;5014176;28;20036;-86
2022/09/01 03:33:07;;;;;;;5.57;3.63;;;16.70;99.90;;;;;;5014681;28;20032;-86
2022/09/01 03:35:33;;;;;;;4.57;3.33;;;16.60;99.90;;;;;;5014881;28;20060;-85
2022/09/01 03:38:01;;;;;;;4.13;3.47;;;16.60;99.90;;;;;;5013989;28;20085;-86
2022/09/01 03:40:34;;;;;;;5.93;3.90;;;16.60;99.90;;;;;;5014676;28;20034;-88
2022/09/01 03:43:02;;;;;;;4.43;3.58;;;16.60;99.90;;;;;;5013547;28;20045;-87
2022/09/01 03:45:29;;;;;;;5.70;3.63;;;16.60;99.90;;;;;;5013854;28;20379;-87
2022/09/01 03:47:55;;;;;;;5.43;3.67;;;16.70;99.90;;;;;;5013912;28;20026;-87
2022/09/01 03:50:23;;;;;;;7.13;3.42;;;16.60;99.90;;;;;;5013692;28;20478;-88
2022/09/01 03:52:57;;;;;;;7.28;3.90;;;16.60;99.90;;;;;;5014422;28;20088;-89
2022/09/01 03:55:27;;;;;;;5.82;4.07;;;16.60;99.90;;;;;;5013630;28;20064;-88
2022/09/01 03:57:59;;;;;;;4.93;3.50;;;16.60;99.90;;;;;;5013033;28;20030;-89
2022/09/01 04:00:28;;;;;;;4.45;3.60;;;16.60;99.90;;;;;;5013564;28;20029;-89
2022/09/01 04:02:57;;;;;;;6.88;3.92;;;16.60;99.90;;;;;;5013191;28;20471;-89
2022/09/01 04:05:27;;;;;;;5.80;4.07;;;16.60;99.90;;;;;;5013818;28;20053;-88
2022/09/01 04:07:55;;;;;;;5.43;3.83;;;16.60;99.90;;;;;;5014190;28;20025;-89
2022/09/01 04:10:21;;;;;;;4.82;4.03;;;16.50;99.90;;;;;;5013276;28;20034;-89
2022/09/01 04:12:48;;;;;;;5.15;3.80;;;16.50;99.90;;;;;;5014114;28;20515;-89
2022/09/01 04:15:16;;;;;;;8.05;4.05;;;16.50;99.90;;;;;;5013202;28;20061;-89
2022/09/01 04:18:08;;;;;;;6.28;4.28;;;16.50;99.90;;;;;;5013435;28;20026;-89
2022/09/01 04:20:47;;;;;;;7.03;4.28;;;16.50;99.90;;;;;;5013283;28;20046;-89
2022/09/01 04:23:32;;;;;;;7.03;4.82;;;16.50;99.90;;;;;;5014610;28;20037;-89
2022/09/01 04:26:08;;;;;;;6.13;4.03;;;16.40;99.90;;;;;;5013105;28;20113;-89
2022/09/01 04:28:39;;;;;;;4.70;3.70;;;16.40;99.90;;;;;;5013657;28;20062;-88
2022/09/01 04:31:08;;;;;;;7.25;4.63;;;16.40;99.90;;;;;;5013952;28;20471;-88
2022/09/01 04:33:40;;;;;;;6.85;3.92;;;16.30;99.90;;;;;;5013565;28;20033;-88
2022/09/01 04:36:21;;;;;;;7.38;4.88;;;16.40;99.90;;;;;;5013402;28;20022;-88
2022/09/01 04:38:48;;;;;;;6.82;4.22;;;16.30;99.90;;;;;;5014035;28;20030;-88
2022/09/01 04:41:16;;;;;;;7.45;4.20;;;16.30;99.90;;;;;;5013863;28;20030;-88
2022/09/01 04:43:44;;;;;;;6.00;4.90;;;16.30;99.90;;;;;;5013579;28;20080;-84
2022/09/01 04:46:13;;;;;;;4.80;4.10;;;16.30;99.90;;;;;;5013082;28;20133;-84
2022/09/01 04:48:41;;;;;;;8.27;4.45;;;16.30;99.90;;;;;;5013009;28;20026;-83
2022/09/01 04:51:09;;;;;;;6.10;4.40;;;16.30;99.90;;;;;;5012646;28;20128;-84
2022/09/01 04:53:35;;;;;;;6.93;4.63;;;16.30;99.90;;;;;;5013974;28;20081;-83
2022/09/01 04:56:06;;;;;;;5.93;4.70;;;16.30;99.90;;;;;;5013678;28;20026;-84
2022/09/01 04:58:32;;;;;;;8.07;4.88;;;16.30;99.90;;;;;;5014467;28;20026;-83
2022/09/01 05:00:59;;;;;;;7.40;4.97;;;16.30;99.90;;;;;;5017047;28;20030;-82
2022/09/01 05:03:25;;;;;;;5.78;4.35;;;16.30;99.90;;;;;;5017888;28;20029;-84
2022/09/01 05:05:52;;;;;;;6.25;4.60;;;16.20;99.90;;;;;;5016374;28;20033;-84
2022/09/01 05:08:21;;;;;;;6.03;4.72;;;16.20;99.90;;;;;;5017957;28;20050;-85
2022/09/01 05:10:50;;;;;;;7.15;4.85;;;16.20;99.90;;;;;;5017095;28;20025;-85
2022/09/01 05:13:16;;;;;;;6.18;4.30;;;16.20;99.90;;;;;;5016705;28;20409;-84
2022/09/01 05:15:47;;;;;;;6.53;4.75;;;16.20;99.90;;;;;;5017604;28;20041;-84
2022/09/01 05:18:22;;;;;;;6.47;4.80;;;16.20;99.90;;;;;;5017019;28;20069;-83
2022/09/01 05:20:51;;;;;;;7.70;4.43;;;16.20;99.90;;;;;;5016078;28;20475;-84
2022/09/01 05:23:19;;;;;;;7.00;4.40;;;16.20;99.90;;;;;;5016753;28;20035;-83
2022/09/01 05:25:48;;;;;;;7.45;5.15;;;16.20;99.90;;;;;;5017159;28;20025;-86
2022/09/01 05:28:17;;;;;;;7.47;4.85;;;16.20;99.90;;;;;;5016374;28;20026;-83
2022/09/01 05:30:44;;;;;;;6.75;5.03;;;16.30;99.90;;;;;;5016845;28;20554;-83
2022/09/01 05:33:11;;;;;;;9.07;5.60;;;16.30;99.90;;;;;;5016081;28;20036;-83
2022/09/01 05:35:42;;;;;;;9.50;5.28;;;16.30;99.90;;;;;;5016102;28;20183;-83
2022/09/01 05:38:11;;;;;;;6.65;5.07;;;16.30;99.90;;;;;;5016030;28;20029;-83
2022/09/01 05:40:42;;;;;;;6.55;5.13;;;16.30;99.90;;;;;;5016817;28;20084;-82
2022/09/01 05:43:11;;;;;;;8.18;5.15;;;16.30;99.90;;;;;;5015906;28;20036;-83
2022/09/01 05:45:42;;;;;;;6.97;5.32;;;16.30;99.90;;;;;;5015742;28;20497;-84
2022/09/01 05:48:11;;;;;;;6.93;5.28;;;16.40;99.90;;;;;;5016517;28;20112;-86
2022/09/01 05:50:41;;;;;;;14.40;6.00;;;16.40;99.90;;;;;;5015918;28;20125;-86
2022/09/01 05:53:17;;;;;;;8.57;5.88;;;16.40;99.90;;;;;;5016621;28;20025;-84
2022/09/01 05:55:44;;;;;;;8.13;5.38;;;16.50;99.90;;;;;;5016140;28;20111;-86
2022/09/01 05:58:13;;;;;;;11.20;5.70;;;16.50;99.90;;;;;;5015586;28;20030;-86
2022/09/01 06:00:41;;;;;;;7.57;5.88;;;16.50;99.90;;;;;;5016738;28;20045;-86
2022/09/01 06:03:08;;;;;;;8.70;5.30;;;16.50;99.90;;;;;;5016042;28;20034;-86
2022/09/01 06:05:35;;;;;;;9.70;5.60;;;16.60;99.90;;;;;;5015641;28;20033;-87
2022/09/01 06:08:06;;;;;;;10.45;6.30;;;16.60;99.90;;;;;;5016119;28;20022;-86
2022/09/01 06:10:34;;;;;;;8.70;6.28;;;16.70;99.90;;;;;;5014956;28;20037;-84
2022/09/01 06:13:01;;;;;;;7.55;6.30;;;16.60;99.90;;;;;;5014824;28;20026;-85
2022/09/01 06:15:29;;;;;;;10.35;7.22;;;16.70;99.90;;;;;;5015285;28;20053;-84
2022/09/01 06:17:56;;;;;;;11.82;7.25;;;16.70;99.90;;;;;;5015841;28;20037;-85
2022/09/01 06:20:22;;;;;;;11.30;6.43;;;16.80;99.90;;;;;;5015324;28;20487;-85
2022/09/01 06:22:48;;;;;;;10.05;6.13;;;16.80;99.90;;;;;;5015870;28;20033;-85
2022/09/01 06:25:17;;;;;;;9.05;6.00;;;16.80;99.90;;;;;;5015122;28;20390;-85
2022/09/01 06:27:43;;;;;;;12.70;6.88;;;16.90;99.90;;;;;;5016234;28;20455;-85
2022/09/01 06:30:16;;;;;;;9.32;6.85;;;16.90;99.90;;;;;;5014532;28;20052;-85
2022/09/01 06:32:43;;;;;;;10.27;6.88;;;17.00;99.90;;;;;;5015255;28;20026;-84
2022/09/01 06:35:16;;;;;;;10.07;7.03;;;17.00;99.90;;;;;;5014672;28;20222;-84
2022/09/01 06:37:43;;;;;;;16.02;8.15;;;17.10;99.90;;;;;;5016159;28;20044;-84
2022/09/01 06:40:16;;;;;;;10.43;7.45;;;17.10;99.90;;;;;;5015454;28;20377;-85
2022/09/01 06:42:47;;;;;;;12.10;7.40;;;17.10;99.90;;;;;;5014966;28;20034;-89
2022/09/01 06:45:15;;;;;;;10.05;6.80;;;17.20;99.90;;;;;;5015602;28;20049;-89
2022/09/01 06:47:46;;;;;;;9.63;6.65;;;17.20;99.90;;;;;;5015722;28;20026;-89
2022/09/01 06:50:18;;;;;;;8.05;5.35;;;17.30;99.90;;;;;;5014483;28;20076;-86
2022/09/01 06:52:45;;;;;;;11.30;7.35;;;17.30;99.90;;;;;;5015632;28;20455;-85
2022/09/01 06:55:12;;;;;;;9.68;7.40;;;17.40;99.90;;;;;;5015544;28;20033;-86
2022/09/01 06:57:40;;;;;;;11.75;7.63;;;17.40;99.90;;;;;;5014484;28;20030;-86
2022/09/01 07:00:19;;;;;;;12.95;7.20;;;17.40;99.90;;;;;;5015264;28;20030;-85
2022/09/01 07:02:46;;;;;;;10.95;7.32;;;17.50;99.90;;;;;;5014566;28;20470;-85
2022/09/01 07:05:17;;;;;;;11.38;7.32;;;17.50;99.90;;;;;;5014800;28;20022;-86
2022/09/01 07:07:54;;;;;;;14.13;8.10;;;17.60;99.90;;;;;;5014531;28;20060;-88
2022/09/01 07:10:25;;;;;;;13.40;7.68;;;17.60;99.90;;;;;;5014113;28;20447;-90
2022/09/01 07:12:55;;;;;;;11.45;6.78;;;17.60;99.90;;;;;;5017443;28;20101;-87
2022/09/01 07:15:22;;;;;;;11.98;7.60;;;17.70;99.90;;;;;;5016675;28;20061;-89
2022/09/01 07:17:51;;;;;;;13.55;7.22;;;17.70;99.90;;;;;;5014032;28;20034;-89
2022/09/01 07:20:17;;;;;;;11.93;6.93;;;17.70;99.90;;;;;;5013668;28;20041;-89
2022/09/01 07:22:43;;;;;;;11.60;7.97;;;17.80;99.90;;;;;;5013183;28;20037;-87
2022/09/01 07:25:11;;;;;;;9.90;7.13;;;17.80;99.90;;;;;;5013603;28;20026;-88
2022/09/01 07:27:37;;;;;;;10.27;7.35;;;17.80;99.90;;;;;;5013700;28;20026;-88
2022/09/01 07:30:08;;;;;;;11.35;7.05;;;17.90;99.90;;;;;;5013218;28;20034;-87
2022/09/01 07:32:35;;;;;;;9.85;6.68;;;17.90;99.90;;;;;;5013764;28;20026;-87
2022/09/01 07:35:04;;;;;;;11.35;6.45;;;17.90;99.90;;;;;;5013187;28;20497;-87
2022/09/01 07:37:30;;;;;;;12.50;7.07;;;18.00;99.90;;;;;;5016520;28;20391;-91
2022/09/01 07:39:57;;;;;;;12.40;6.97;;;18.00;99.90;;;;;;5016155;28;20029;-90
2022/09/01 07:42:23;;;;;;;8.52;6.28;;;18.10;99.90;;;;;;5017921;28;20030;-90
2022/09/01 07:44:49;;;;;;;10.75;6.68;;;18.20;99.90;;;;;;5017262;28;20041;-89
2022/09/01 07:47:15;;;;;;;10.10;6.95;;;18.20;99.90;;;;;;5019754;28;20056;-90
2022/09/01 07:49:40;;;;;;;12.07;6.97;;;18.20;99.90;;;;;;5021218;28;20087;-90
2022/09/01 07:52:06;;;;;;;8.70;6.28;;;18.30;99.90;;;;;;5019585;28;20026;-90
2022/09/01 07:54:33;;;;;;;9.98;6.57;;;18.30;99.90;;;;;;5019576;28;20084;-89
2022/09/01 07:57:00;;;;;;;13.57;6.57;;;18.30;99.90;;;;;;5019128;28;20026;-89
2022/09/01 07:59:27;;;;;;;9.38;6.45;;;18.40;99.90;;;;;;5018604;28;20061;-90
2022/09/01 08:01:52;;;;;;;12.10;6.68;;;18.50;99.90;;;;;;5015603;28;20033;-90
2022/09/01 08:04:21;;;;;;;11.48;6.38;;;18.50;99.90;;;;;;5014555;28;20026;-90
2022/09/01 08:06:47;;;;;;;8.52;5.50;;;18.60;99.90;;;;;;5013906;28;20026;-90
2022/09/01 08:09:13;;;;;;;9.23;5.95;;;18.60;99.90;;;;;;5014159;28;20061;-90
2022/09/01 08:11:39;;;;;;;7.47;5.63;;;18.60;99.90;;;;;;5013505;28;20084;-90
2022/09/01 08:14:05;;;;;;;8.55;5.80;;;18.70;99.90;;;;;;5012666;28;20037;-89
2022/09/01 08:16:31;;;;;;;10.90;5.82;;;18.70;99.90;;;;;;5005593;28;20046;-86
2022/09/01 08:18:57;;;;;;;8.98;5.72;;;18.90;99.90;;;;;;5003948;28;20053;-89
2022/09/01 08:21:24;;;;;;;9.23;6.05;;;18.90;99.90;;;;;;5010130;28;20049;-90
2022/09/01 08:23:52;;;;;;;7.30;5.55;;;18.90;99.90;;;;;;5013471;28;20112;-90
2022/09/01 08:26:21;;;;;;;8.48;5.20;;;19.00;99.90;;;;;;5012980;28;20022;-89
2022/09/01 08:28:47;;;;;;;9.95;6.13;;;19.00;99.90;;;;;;5013690;28;20034;-90
2022/09/01 08:31:15;;;;;;;8.52;5.93;;;19.10;99.90;;;;;;5011953;28;20084;-90
2022/09/01 08:33:42;;;;;;;8.00;5.57;;;19.10;99.90;;;;;;5014487;28;20110;-89
2022/09/01 08:36:10;;;;;;;8.48;5.40;;;19.10;99.90;;;;;;5016740;28;20125;-89
2022/09/01 08:38:36;;;;;;;9.40;4.95;;;19.20;99.90;;;;;;5017725;28;20022;-89
2022/09/01 08:41:11;;;;;;;9.82;5.75;;;19.30;99.90;;;;;;5016564;28;20490;-89
2022/09/01 08:44:10;;;;;;;9.80;5.40;;;19.30;99.90;;;;;;5018626;28;20034;-89
2022/09/01 08:46:41;;;;;;;6.22;5.18;;;19.30;99.90;;;;;;5017051;28;20033;-86
2022/09/01 08:49:11;;;;;;;6.70;4.70;;;19.40;99.90;;;;;;5017859;28;20026;-87
2022/09/01 08:52:07;;;;;;;6.88;5.13;;;19.50;99.90;;;;;;5018143;28;20034;-87
2022/09/01 08:54:50;;;;;;;8.27;5.25;;;19.60;99.90;;;;;;5018320;28;20025;-87
2022/09/01 08:57:23;;;;;;;7.13;5.18;;;19.60;99.90;;;;;;5016766;28;20467;-83
2022/09/01 08:59:49;;;;;;;5.88;4.18;;;19.80;99.90;;;;;;5009224;28;20038;-90
2022/09/01 09:02:37;;;;;;;5.93;4.18;;;20.10;99.90;;;;;;5009868;28;20521;-89
2022/09/01 09:05:16;;;;;;;5.70;4.38;;;20.20;99.90;;;;;;5017167;28;20026;-88
2022/09/01 09:08:15;;;;;;;5.15;4.50;;;20.50;99.90;;;;;;5009259;28;20032;-89
2022/09/01 09:10:58;;;;;;;7.07;4.50;;;20.60;99.90;;;;;;5010549;28;20033;-87
2022/09/01 09:13:33;;;;;;;5.50;4.05;;;20.70;99.90;;;;;;5014131;28;20387;-88
2022/09/01 09:16:05;;;;;;;7.25;4.72;;;20.70;99.90;;;;;;5013493;28;20486;-83
2022/09/01 09:18:55;;;;;;;6.80;4.55;;;20.80;99.90;;;;;;5015680;28;20100;-89
2022/09/01 09:21:45;;;;;;;5.95;4.57;;;20.90;99.90;;;;;;5015063;28;20497;-90
2022/09/01 09:24:45;;;;;;;6.93;4.32;;;21.00;99.90;;;;;;5015560;28;20061;-87
2022/09/01 09:27:21;;;;;;;7.65;4.78;;;21.10;99.90;;;;;;5015425;28;20022;-90
2022/09/01 09:29:49;;;;;;;5.82;3.95;;;21.30;99.90;;;;;;5015675;28;20026;-90
2022/09/01 09:32:15;;;;;;;7.22;4.10;;;21.30;99.90;;;;;;5015204;28;20034;-89
2022/09/01 09:34:42;;;;;;;8.00;4.18;;;21.40;99.90;;;;;;5016891;28;20022;-89
2022/09/01 09:37:24;;;;;;;6.07;4.13;;;21.40;99.90;;;;;;5016135;28;20030;-89
2022/09/01 09:40:11;;;;;;;8.73;4.25;;;21.60;99.90;;;;;;5015732;28;20026;-88
2022/09/01 09:43:01;;;;;;;6.22;4.18;;;21.60;99.90;;;;;;5016042;28;20033;-88
2022/09/01 09:45:34;;;;;;;6.38;4.13;;;21.70;99.90;;;;;;5004618;28;20042;-89
2022/09/01 09:48:06;;;;;;;7.85;4.65;;;21.70;99.90;;;;;;4998869;28;20040;-83
2022/09/01 09:50:33;;;;;;;;;;;21.80;99.90;;;;;;5003704;28;20026;-89
2022/09/01 09:53:14;;;;;;;7.18;5.10;;;21.70;99.90;;;;;;5021597;28;19913;-88
2022/09/01 09:56:00;;;;;;;6.15;4.35;;;21.50;99.90;;;;;;5015998;28;20036;-89
2022/09/01 09:58:41;;;;;;;8.02;5.40;;;21.40;99.90;;;;;;5013491;28;20043;-88
2022/09/01 10:01:27;;;;;;;6.93;4.53;;;21.40;99.90;;;;;;5014578;28;20487;-88
2022/09/01 10:03:56;;;;;;;9.48;5.15;;;21.50;99.90;;;;;;5015871;28;20034;-84
2022/09/01 10:06:33;;;;;;;7.28;4.63;;;21.50;99.90;;;;;;5015421;28;20029;-86
2022/09/01 10:09:05;;;;;;;8.05;4.88;;;21.40;99.90;;;;;;5016414;28;20048;-86
2022/09/01 10:11:44;;;;;;;9.38;6.03;;;21.50;99.90;;;;;;5015297;28;20036;-84
2022/09/01 10:14:20;;;;;;;9.57;5.43;;;21.50;99.90;;;;;;5014516;28;20036;-85
2022/09/01 10:17:00;;;;;;;12.00;7.05;;;21.50;99.90;;;;;;5015536;28;20054;-87
2022/09/01 10:19:29;;;;;;;8.88;5.13;;;21.60;99.90;;;;;;5015714;28;20034;-86
2022/09/01 10:21:55;;;;;;;5.30;4.10;;;21.80;99.90;;;;;;5012914;28;20030;-88
2022/09/01 10:24:27;;;;;;;4.97;3.60;;;21.80;99.90;;;;;;4998052;28;20037;-83
2022/09/01 10:26:57;;;;;;;5.50;3.40;;;21.80;99.90;;;;;;5005285;28;20117;-87
2022/09/01 10:30:01;;;;;;;4.72;3.60;;;21.90;99.90;;;;;;5005942;28;20069;-89
2022/09/01 10:32:37;;;;;;;8.20;3.33;;;22.00;99.90;;;;;;4962889;28;20129;-88
2022/09/01 10:35:06;;;;;;;4.78;3.55;;;22.10;99.90;;;;;;4995323;28;20027;-87
2022/09/01 10:37:33;;;;;;;3.80;3.15;;;22.20;99.90;;;;;;5002855;28;20036;-88
2022/09/01 10:40:14;;;;;;;3.95;2.92;;;22.40;99.90;;;;;;5007524;28;20030;-88
2022/09/01 10:42:42;;;;;;;4.22;3.20;;;22.60;99.90;;;;;;5008184;28;20121;-88
2022/09/01 10:45:30;;;;;;;3.28;2.97;;;22.60;99.60;;;;;;5015102;28;20030;-86
2022/09/01 10:48:16;;;;;;;3.70;3.00;;;22.70;98.90;;;;;;5014354;28;20471;-87
2022/09/01 10:50:42;;;;;;;3.50;3.10;;;22.70;99.00;;;;;;5009619;28;20026;-85
2022/09/01 10:53:07;;;;;;;4.03;3.30;;;22.80;99.30;;;;;;5013885;28;20036;-86
2022/09/01 10:55:42;;;;;;;4.20;3.20;;;22.90;99.40;;;;;;5014787;28;20026;-88
2022/09/01 10:58:40;;;;;;;3.85;3.30;;;23.00;98.70;;;;;;5008170;28;20030;-86
2022/09/01 11:01:06;;;;;;;3.75;3.05;;;23.20;99.20;;;;;;4994784;28;20061;-84
2022/09/01 11:03:32;;;;;;;4.47;3.17;;;23.20;98.90;;;;;;4994921;28;20069;-87
2022/09/01 11:06:07;;;;;;;3.83;3.28;;;23.20;98.50;;;;;;4995556;28;20101;-87
2022/09/01 11:08:33;;;;;;;5.30;3.20;;;23.20;98.70;;;;;;5014734;28;20037;-88
2022/09/01 11:11:12;;;;;;;6.28;3.42;;;23.30;98.00;;;;;;5009962;28;20022;-87
2022/09/01 11:13:53;;;;;;;5.07;3.15;;;23.20;97.40;;;;;;4994827;28;20030;-86
2022/09/01 11:16:36;;;;;;;;;;;23.20;97.20;;;;;;4997023;28;20490;-86
2022/09/01 11:19:26;;;;;;;3.75;3.00;;;23.20;97.00;;;;;;5014363;28;19909;-87
2022/09/01 11:22:17;;;;;;;5.45;3.05;;;23.10;97.40;;;;;;5014064;28;20053;-85
2022/09/01 11:24:47;;;;;;;4.22;2.78;;;23.10;97.10;;;;;;5015558;28;20060;-86
2022/09/01 11:28:02;;;;;;;4.47;2.90;;;23.30;97.50;;;;;;5014601;28;20042;-86
2022/09/01 11:30:34;;;;;;;5.22;3.08;;;23.50;98.40;;;;;;4985345;28;20080;-86
2022/09/01 11:33:10;;;;;;;;;;;23.50;96.60;;;;;;4995053;28;20098;-86
2022/09/01 11:35:36;;;;;;;3.47;2.90;;;23.40;96.10;;;;;;4996135;28;19913;-85
2022/09/01 11:38:06;;;;;;;4.30;2.95;;;23.20;97.00;;;;;;5006980;28;20192;-90
2022/09/01 11:40:34;;;;;;;16.87;13.17;;;23.10;97.20;;;;;;5004086;28;20041;-88
2022/09/01 11:43:10;;;;;;;10.38;7.28;;;23.00;97.20;;;;;;5011199;28;20033;-87
2022/09/01 11:45:52;;;;;;;4.95;3.58;;;22.90;97.00;;;;;;4999115;28;20031;-89
2022/09/01 11:48:18;;;;;;;4.07;3.15;;;23.10;97.50;;;;;;5004569;28;20036;-88
2022/09/01 11:50:43;;;;;;;3.60;2.83;;;23.10;97.60;;;;;;5004427;28;20101;-89
2022/09/01 11:53:14;;;;;;;3.47;3.08;;;23.20;97.40;;;;;;5003948;28;20108;-88
2022/09/01 11:55:43;;;;;;;3.55;3.00;;;23.30;96.80;;;;;;5007496;28;20041;-87
2022/09/01 11:58:33;;;;;;;5.22;3.33;;;23.40;96.70;;;;;;5002463;28;20029;-88
2022/09/01 12:01:13;;;;;;;3.83;2.92;;;23.50;96.20;;;;;;5000993;28;20042;-89
2022/09/01 12:03:39;;;;;;;4.50;2.83;;;23.60;95.80;;;;;;5007910;28;20024;-90
2022/09/01 12:06:08;;;;;;;5.05;3.20;;;23.70;96.30;;;;;;5005297;28;20037;-82
2022/09/01 12:08:41;;;;;;;4.07;2.92;;;23.80;96.00;;;;;;5011178;28;20030;-89
2022/09/01 12:11:18;;;;;;;5.63;3.22;;;24.00;95.70;;;;;;5012928;28;20494;-87
2022/09/01 12:14:03;;;;;;;4.38;3.40;;;24.20;95.70;;;;;;5014504;28;20029;-80
2022/09/01 12:16:31;;;;;;;4.22;2.88;;;24.60;95.60;;;;;;5012360;28;20414;-83
2022/09/01 12:18:58;;;;;;;4.82;3.50;;;24.70;94.60;;;;;;5013081;28;20029;-94
2022/09/01 12:21:42;;;;;;;3.67;3.05;;;24.50;94.80;;;;;;5012977;28;20027;-86
2022/09/01 12:24:17;;;;;;;3.25;2.95;;;24.50;94.20;;;;;;5010729;28;20036;-89
2022/09/01 12:26:48;;;;;;;4.25;2.80;;;24.60;93.30;;;;;;5014378;28;20022;-90
2022/09/01 12:29:15;;;;;;;4.07;2.60;;;24.70;93.50;;;;;;5012799;28;20030;-88
2022/09/01 12:31:43;;;;;;;4.85;2.58;;;24.80;93.60;;;;;;5013205;28;20041;-87
2022/09/01 12:34:38;;;;;;;3.92;2.60;;;25.10;92.50;;;;;;5013446;28;20022;-77
2022/09/01 12:37:25;;;;;;;3.00;2.30;;;25.20;92.00;;;;;;5012768;28;20029;-79
2022/09/01 12:39:53;;;;;;;3.00;2.60;;;25.30;91.30;;;;;;5013506;28;20030;-77
2022/09/01 12:42:19;;;;;;;3.45;2.30;;;25.50;91.10;;;;;;5011779;28;20445;-74
2022/09/01 12:44:56;;;;;;;2.97;2.65;;;25.70;90.50;;;;;;5002809;28;20092;-76
2022/09/01 12:47:37;;;;;;;3.55;2.22;;;25.80;90.20;;;;;;4992686;28;20062;-74
2022/09/01 12:50:27;;;;;;;3.22;2.22;;;26.10;88.80;;;;;;5003634;28;20049;-76
2022/09/01 12:52:57;;;;;;;2.53;2.07;;;26.30;87.20;;;;;;5008626;28;20026;-74
2022/09/01 12:55:26;;;;;;;2.83;2.20;;;26.40;86.40;;;;;;4993837;28;20280;-75
2022/09/01 12:57:54;;;;;;;2.17;1.98;;;26.50;85.50;;;;;;5009777;28;20041;-74
2022/09/01 13:00:29;;;;;;;5.00;1.95;;;26.70;84.90;;;;;;5000794;28;20088;-74
2022/09/01 13:03:04;;;;;;;2.95;2.03;;;26.90;84.40;;;;;;5010415;28;20018;-76
2022/09/01 13:05:39;;;;;;;1.92;1.73;;;27.00;82.40;;;;;;4996985;28;20446;-72
2022/09/01 13:08:13;;;;;;;3.78;1.92;;;27.00;79.60;;;;;;5011608;28;20034;-73
2022/09/01 13:10:42;;;;;;;3.17;1.70;;;26.80;79.40;;;;;;5007523;28;20065;-72